Dades meteomassalio
Diari Summary for Febrer 24, 2017 Units:  Metric    English   Both
« Previous Day
Next Day »
Diari Semanal Mensual Anual Personalitzat
  Maxima: Minima: Mijana:
Temperatura: 14.1 °C 7.2 °C 10.4 °C
Rosada: 8.7 °C 0.9 °C 5.6 °C
Humitat: 92 % 54 % 73 %
Velocitat del vent: 42.6 km/h 0.0 km/h 17.7 km/h
Racha vent: 42.6 km/h - -
Vent:- - WNW
Pressio: 1020.2 hPa 1013.4 hPa -
Pluja: 0.5 mm    
Historical Graphs
 
 
Tabular Data for Febrer 24, 2017
Time Temperature Dew Point Pressure Wind Wind Speed Wind Gust Humidity Rainfall Rate (Hourly) solar Conditions
00:03 8.4 °C 7.1 °C 1015.1 hPa Calm     91 % 0.0 mm 0.0 W/m2 CLR
00:08 8.3 °C 6.9 °C 1015.1 hPa Calm     91 % 0.0 mm 0.0 W/m2 CLR
00:13 8.3 °C 6.9 °C 1015.1 hPa Calm     91 % 0.0 mm 0.0 W/m2 CLR
00:18 8.2 °C 6.8 °C 1015.1 hPa Calm     91 % 0.0 mm 0.0 W/m2 CLR
00:23 8.0 °C 6.6 °C 1015.1 hPa Calm     91 % 0.0 mm 0.0 W/m2 CLR
00:28 8.1 °C 6.9 °C 1015.1 hPa NW 1.9 km/h   92 % 0.0 mm 0.0 W/m2 CLR
00:33 8.2 °C 6.8 °C 1015.1 hPa Calm     91 % 0.0 mm 0.0 W/m2 CLR
00:38 8.1 °C 6.6 °C 1015.1 hPa Calm     90 % 0.0 mm 0.0 W/m2 CLR
00:43 8.1 °C 6.7 °C 1015.1 hPa Calm     91 % 0.0 mm 0.0 W/m2 CLR
00:48 8.0 °C 6.6 °C 1015.1 hPa Calm     91 % 0.0 mm 0.0 W/m2 CLR
00:53 7.9 °C 6.6 °C 1015.5 hPa Calm     91 % 0.0 mm 0.0 W/m2 CLR
00:58 7.9 °C 6.5 °C 1015.5 hPa Calm     91 % 0.0 mm 0.0 W/m2 CLR
01:03 7.8 °C 6.4 °C 1015.5 hPa Calm     91 % 0.0 mm 0.0 W/m2 CLR
01:08 7.9 °C 6.7 °C 1015.5 hPa Calm     92 % 0.0 mm 0.0 W/m2 CLR
01:13 7.9 °C 6.6 °C 1015.8 hPa Calm     91 % 0.0 mm 0.0 W/m2 CLR
01:18 7.9 °C 6.5 °C 1015.5 hPa Calm     91 % 0.0 mm 0.0 W/m2 CLR
01:23 7.9 °C 6.5 °C 1015.8 hPa Calm     91 % 0.0 mm 0.0 W/m2 CLR
01:28 7.9 °C 6.5 °C 1015.8 hPa Calm     91 % 0.0 mm 0.0 W/m2 CLR
01:33 8.1 °C 6.8 °C 1015.8 hPa WSW 7.4 km/h 7.4 km/h 92 % 0.0 mm 0.0 W/m2 CLR
01:38 8.4 °C 7.2 °C 1015.8 hPa SW 9.3 km/h 9.3 km/h 92 % 0.0 mm 0.0 W/m2 CLR
01:43 8.6 °C 7.2 °C 1015.8 hPa West 5.6 km/h 5.6 km/h 91 % 0.0 mm 0.0 W/m2 CLR
01:48 8.7 °C 7.2 °C 1015.5 hPa West 9.3 km/h 9.3 km/h 90 % 0.0 mm 0.0 W/m2 CLR
01:53 8.8 °C 7.3 °C 1015.8 hPa Calm     90 % 0.0 mm 0.0 W/m2 CLR
01:58 8.8 °C 7.1 °C 1015.8 hPa SSW 5.6 km/h 5.6 km/h 89 % 0.0 mm 0.0 W/m2 CLR
01:59 8.8 °C 7.1 °C 1015.8 hPa SSW 5.6 km/h   89 % 0.0 mm 0.0 W/m2 CLR
02:04 8.7 °C 6.9 °C 1015.8 hPa Calm     89 % 0.0 mm 0.0 W/m2 CLR
02:09 8.6 °C 7.1 °C 1015.8 hPa Calm     90 % 0.0 mm 0.0 W/m2 CLR
02:14 8.6 °C 7.1 °C 1015.5 hPa Calm     90 % 0.0 mm 0.0 W/m2 CLR
02:19 8.7 °C 7.1 °C 1015.5 hPa Calm     90 % 0.0 mm 0.0 W/m2 CLR
02:24 8.6 °C 7.1 °C 1015.5 hPa Calm     90 % 0.0 mm 0.0 W/m2 CLR
02:29 8.6 °C 7.1 °C 1015.1 hPa Calm     90 % 0.0 mm 0.0 W/m2 CLR
02:34 8.8 °C 7.2 °C 1015.1 hPa West 5.6 km/h 5.6 km/h 90 % 0.0 mm 0.0 W/m2 CLR
02:39 9.1 °C 7.3 °C 1015.1 hPa Calm     89 % 0.0 mm 0.0 W/m2 CLR
02:44 9.1 °C 7.2 °C 1014.8 hPa WSW 9.7 km/h 9.7 km/h 88 % 0.0 mm 0.0 W/m2 CLR
02:49 9.2 °C 7.3 °C 1014.8 hPa WSW 7.4 km/h 7.4 km/h 88 % 0.0 mm 0.0 W/m2 CLR
02:54 9.3 °C 7.2 °C 1014.8 hPa WSW 6.4 km/h 6.4 km/h 87 % 0.0 mm 0.0 W/m2 CLR
02:59 9.3 °C 7.2 °C 1014.8 hPa Calm     87 % 0.0 mm 0.0 W/m2 CLR
03:04 9.2 °C 7.2 °C 1014.8 hPa Calm     87 % 0.0 mm 0.0 W/m2 CLR
03:09 9.0 °C 7.1 °C 1014.8 hPa Calm     88 % 0.0 mm 0.0 W/m2 CLR
03:14 8.8 °C 6.9 °C 1014.8 hPa Calm     88 % 0.0 mm 0.0 W/m2 CLR
03:19 8.8 °C 6.9 °C 1014.8 hPa Calm     88 % 0.0 mm 0.0 W/m2 CLR
03:24 8.8 °C 7.1 °C 1014.8 hPa Calm     89 % 0.0 mm 0.0 W/m2 CLR
03:29 8.7 °C 7.0 °C 1014.4 hPa Calm     89 % 0.0 mm 0.0 W/m2 CLR
03:34 8.9 °C 7.2 °C 1014.4 hPa Calm     89 % 0.0 mm 0.0 W/m2 CLR
03:39 9.0 °C 7.1 °C 1014.4 hPa Calm     88 % 0.0 mm 0.0 W/m2 CLR
03:44 9.3 °C 7.4 °C 1014.4 hPa SW 6.4 km/h 6.4 km/h 88 % 0.0 mm 0.0 W/m2 CLR
03:49 9.6 °C 7.5 °C 1014.1 hPa Calm     87 % 0.0 mm 0.0 W/m2 CLR
03:54 9.7 °C 7.5 °C 1014.1 hPa Calm     86 % 0.0 mm 0.0 W/m2 CLR
03:59 9.7 °C 7.3 °C 1014.1 hPa Calm     85 % 0.0 mm 0.0 W/m2 CLR
04:04 9.6 °C 7.2 °C 1014.1 hPa Calm     85 % 0.0 mm 0.0 W/m2 CLR
04:09 9.5 °C 7.3 °C 1014.1 hPa Calm     86 % 0.0 mm 0.0 W/m2 CLR
04:14 9.4 °C 7.2 °C 1014.1 hPa Calm     86 % 0.0 mm 0.0 W/m2 CLR
04:19 9.4 °C 7.2 °C 1014.1 hPa Calm     86 % 0.0 mm 0.0 W/m2 CLR
04:24 9.4 °C 7.2 °C 1014.1 hPa Calm     86 % 0.0 mm 0.0 W/m2 CLR
04:29 9.4 °C 7.2 °C 1014.1 hPa Calm     86 % 0.0 mm 0.0 W/m2 CLR
04:34 9.5 °C 7.3 °C 1013.8 hPa WSW 8.0 km/h 8.0 km/h 86 % 0.0 mm 0.0 W/m2 CLR
04:39 9.8 °C 7.4 °C 1013.8 hPa WSW 9.3 km/h 9.3 km/h 85 % 0.0 mm 0.0 W/m2 CLR
04:44 9.9 °C 7.4 °C 1013.8 hPa WSW 9.3 km/h 9.3 km/h 84 % 0.0 mm 0.0 W/m2 CLR
04:49 9.9 °C 7.4 °C 1013.8 hPa SW 5.6 km/h 5.6 km/h 84 % 0.0 mm 0.0 W/m2 CLR
04:54 9.8 °C 7.2 °C 1013.8 hPa Calm     84 % 0.0 mm 0.0 W/m2 CLR
04:59 9.7 °C 7.3 °C 1013.8 hPa SW 5.6 km/h 5.6 km/h 85 % 0.0 mm 0.0 W/m2 CLR
05:04 9.7 °C 7.2 °C 1013.4 hPa Calm     84 % 0.0 mm 0.0 W/m2 CLR
05:09 9.7 °C 7.2 °C 1013.8 hPa WSW 3.7 km/h   84 % 0.0 mm 0.0 W/m2 CLR
05:14 9.8 °C 7.2 °C 1013.8 hPa Calm     84 % 0.0 mm 0.0 W/m2 CLR
05:19 9.8 °C 7.0 °C 1013.8 hPa West 9.7 km/h 9.7 km/h 83 % 0.0 mm 0.0 W/m2 CLR
05:24 10.1 °C 7.1 °C 1013.8 hPa West 9.7 km/h 9.7 km/h 82 % 0.0 mm 0.0 W/m2 CLR
05:29 10.2 °C 7.1 °C 1013.8 hPa WNW 13.0 km/h 13.0 km/h 81 % 0.0 mm 0.0 W/m2 CLR
05:34 10.3 °C 7.0 °C 1013.8 hPa West 9.7 km/h 9.7 km/h 80 % 0.0 mm 0.0 W/m2 CLR
05:39 10.3 °C 6.8 °C 1013.8 hPa West 13.0 km/h 13.0 km/h 79 % 0.0 mm 0.0 W/m2 CLR
05:44 10.3 °C 6.8 °C 1013.8 hPa WNW 13.0 km/h 13.0 km/h 79 % 0.0 mm 0.0 W/m2 CLR
05:49 10.3 °C 6.5 °C 1013.8 hPa WNW 12.9 km/h 12.9 km/h 77 % 0.0 mm 0.0 W/m2 CLR
05:54 10.4 °C 6.6 °C 1013.8 hPa West 11.1 km/h 11.1 km/h 77 % 0.0 mm 0.0 W/m2 CLR
05:59 10.3 °C 6.5 °C 1013.8 hPa WNW 14.8 km/h 14.8 km/h 77 % 0.0 mm 0.0 W/m2 CLR
06:04 10.3 °C 6.5 °C 1013.4 hPa West 8.0 km/h 8.0 km/h 77 % 0.0 mm 0.0 W/m2 CLR
06:09 10.3 °C 6.4 °C 1013.4 hPa WSW 14.8 km/h 14.8 km/h 77 % 0.0 mm 0.0 W/m2 CLR
06:14 10.2 °C 6.3 °C 1013.4 hPa West 16.7 km/h 16.7 km/h 77 % 0.0 mm 0.0 W/m2 CLR
06:19 10.1 °C 6.3 °C 1013.4 hPa West 13.0 km/h 13.0 km/h 77 % 0.0 mm 0.0 W/m2 CLR
06:24 10.0 °C 6.2 °C 1013.4 hPa West 9.3 km/h 9.3 km/h 77 % 0.0 mm 0.0 W/m2 CLR
06:29 9.9 °C 6.1 °C 1013.4 hPa WSW 4.8 km/h 4.8 km/h 77 % 0.0 mm 0.0 W/m2 CLR
06:34 10.0 °C 6.2 °C 1013.4 hPa WSW 11.1 km/h 11.1 km/h 77 % 0.0 mm 0.0 W/m2 CLR
06:39 10.0 °C 6.2 °C 1013.4 hPa West 13.0 km/h 13.0 km/h 77 % 0.0 mm 0.0 W/m2 CLR
06:44 10.0 °C 6.3 °C 1013.4 hPa WNW 14.8 km/h 14.8 km/h 78 % 0.0 mm 0.0 W/m2 CLR
06:49 10.1 °C 6.4 °C 1013.4 hPa West 22.2 km/h 22.2 km/h 78 % 0.0 mm 0.0 W/m2 CLR
06:54 10.1 °C 6.4 °C 1013.4 hPa WNW 18.5 km/h 18.5 km/h 78 % 0.0 mm 0.0 W/m2 CLR
06:59 10.0 °C 6.3 °C 1013.4 hPa West 24.1 km/h 24.1 km/h 78 % 0.0 mm 0.0 W/m2 CLR
07:05 9.9 °C 6.3 °C 1013.4 hPa West 13.0 km/h 13.0 km/h 78 % 0.0 mm 0.0 W/m2 CLR
07:10 10.0 °C 6.3 °C 1013.4 hPa West 7.4 km/h 7.4 km/h 78 % 0.0 mm 0.0 W/m2 CLR
07:15 9.9 °C 6.3 °C 1013.8 hPa NW 13.0 km/h 13.0 km/h 78 % 0.0 mm 0.0 W/m2 CLR
07:20 9.9 °C 6.3 °C 1013.8 hPa West 16.7 km/h 16.7 km/h 78 % 0.0 mm 0.0 W/m2 CLR
07:25 9.9 °C 6.3 °C 1013.8 hPa SW 14.8 km/h 14.8 km/h 78 % 0.0 mm 0.0 W/m2 CLR
07:30 9.9 °C 6.4 °C 1013.8 hPa WNW 20.9 km/h 20.9 km/h 79 % 0.0 mm 0.0 W/m2 CLR
07:35 9.9 °C 6.4 °C 1013.8 hPa West 11.1 km/h 11.1 km/h 79 % 0.0 mm 0.0 W/m2 OVC
07:40 9.8 °C 6.4 °C 1013.8 hPa WSW 13.0 km/h 13.0 km/h 79 % 0.0 mm 0.0 W/m2 OVC
07:45 9.8 °C 6.4 °C 1013.8 hPa WSW 14.8 km/h 14.8 km/h 79 % 0.0 mm 0.0 W/m2 OVC
07:50 9.8 °C 6.6 °C 1014.1 hPa Calm     80 % 0.0 mm 0.0 W/m2 OVC
07:55 9.8 °C 6.6 °C 1014.1 hPa SW 9.3 km/h 9.3 km/h 80 % 0.0 mm 5.0 W/m2 OVC
08:00 9.8 °C 6.6 °C 1014.1 hPa WSW 9.7 km/h 9.7 km/h 80 % 0.0 mm 5.0 W/m2 OVC
08:05 9.8 °C 6.6 °C 1014.1 hPa WSW 7.4 km/h   80 % 0.0 mm 9.0 W/m2 BKN
08:10 9.8 °C 6.6 °C 1014.4 hPa WNW 4.8 km/h 4.8 km/h 80 % 0.0 mm 12.0 W/m2 BKN
08:15 9.8 °C 6.6 °C 1014.4 hPa WSW 13.0 km/h 13.0 km/h 80 % 0.0 mm 16.0 W/m2 BKN
08:20 9.9 °C 6.6 °C 1014.8 hPa WNW 5.6 km/h 5.6 km/h 80 % 0.0 mm 16.0 W/m2 BKN
08:25 9.9 °C 6.8 °C 1014.8 hPa NW 14.8 km/h 14.8 km/h 81 % 0.0 mm 12.0 W/m2 BKN
08:30 9.9 °C 6.8 °C 1015.1 hPa West 14.8 km/h 14.8 km/h 81 % 0.0 mm 14.0 W/m2 BKN
08:35 9.9 °C 6.8 °C 1015.1 hPa West 9.3 km/h 9.3 km/h 81 % 0.0 mm 21.0 W/m2 BKN
08:40 9.9 °C 6.8 °C 1014.8 hPa West 13.0 km/h 13.0 km/h 81 % 0.0 mm 33.0 W/m2 BKN
08:45 9.9 °C 6.9 °C 1015.1 hPa SW 9.3 km/h 9.3 km/h 82 % 0.0 mm 49.0 W/m2 BKN
08:50 9.9 °C 7.0 °C 1015.1 hPa West 9.7 km/h 9.7 km/h 82 % 0.0 mm 58.0 W/m2 SCT
08:55 9.9 °C 7.1 °C 1015.1 hPa West 16.7 km/h 16.7 km/h 83 % 0.0 mm 40.0 W/m2 SCT
09:00 9.7 °C 7.2 °C 1015.1 hPa WNW 11.3 km/h 11.3 km/h 84 % 0.3 mm 33.0 W/m2 RA
09:05 9.6 °C 7.2 °C 1015.5 hPa WNW 7.4 km/h 7.7 km/h 85 % 0.3 mm 35.0 W/m2 BKN
09:10 9.5 °C 7.3 °C 1015.5 hPa WSW 7.4 km/h 7.4 km/h 86 % 0.5 mm 32.0 W/m2 RA
09:15 9.4 °C 7.4 °C 1015.5 hPa West 3.7 km/h   87 % 0.5 mm 28.0 W/m2 BKN
09:20 9.4 °C 7.5 °C 1015.1 hPa WSW 7.4 km/h 7.4 km/h 88 % 0.5 mm 46.0 W/m2 BKN
09:25 9.4 °C 7.5 °C 1015.1 hPa West 8.0 km/h 8.0 km/h 88 % 0.5 mm 62.0 W/m2 BKN
09:30 9.5 °C 7.6 °C 1015.1 hPa West 13.0 km/h 13.0 km/h 88 % 0.5 mm 70.0 W/m2 SCT
09:35 9.6 °C 7.7 °C 1015.1 hPa West 5.6 km/h 5.6 km/h 88 % 0.5 mm 86.0 W/m2 FEW
09:40 9.7 °C 7.8 °C 1015.1 hPa WNW 5.6 km/h 5.6 km/h 88 % 0.5 mm 93.0 W/m2 FEW
09:45 9.8 °C 7.9 °C 1015.1 hPa Calm     88 % 0.5 mm 84.0 W/m2 CLR
09:50 9.8 °C 7.9 °C 1015.1 hPa West 5.6 km/h 5.6 km/h 88 % 0.5 mm 67.0 W/m2 FEW
09:55 9.9 °C 8.0 °C 1015.1 hPa WSW 8.0 km/h 8.0 km/h 88 % 0.3 mm 69.0 W/m2 FEW
10:00 9.9 °C 8.1 °C 1015.1 hPa WSW 7.4 km/h 7.4 km/h 88 % 0.3 mm 58.0 W/m2 FEW
10:05 10.0 °C 7.9 °C 1015.1 hPa WSW 13.0 km/h 13.0 km/h 87 % 0.3 mm 60.0 W/m2 SCT
10:10 10.1 °C 8.1 °C 1015.1 hPa WSW 9.7 km/h 9.7 km/h 87 % 0.0 mm 56.0 W/m2 SCT
10:15 10.2 °C 8.0 °C 1015.1 hPa West 16.1 km/h 16.1 km/h 86 % 0.0 mm 77.0 W/m2 SCT
10:20 10.3 °C 7.9 °C 1015.1 hPa West 13.0 km/h 13.0 km/h 85 % 0.0 mm 95.0 W/m2 FEW
10:25 10.5 °C 8.3 °C 1015.5 hPa West 5.6 km/h 5.6 km/h 86 % 0.0 mm 116.0 W/m2 CLR
10:30 10.6 °C 8.2 °C 1015.5 hPa West 13.0 km/h 13.0 km/h 85 % 0.0 mm 153.0 W/m2 CLR
10:35 10.7 °C 8.3 °C 1015.1 hPa West 16.7 km/h 16.7 km/h 85 % 0.0 mm 158.0 W/m2 CLR
10:40 10.9 °C 8.3 °C 1015.1 hPa West 13.0 km/h 13.0 km/h 84 % 0.0 mm 163.0 W/m2 CLR
10:45 11.0 °C 8.4 °C 1015.1 hPa West 11.1 km/h 11.1 km/h 84 % 0.0 mm 146.0 W/m2 CLR
10:50 11.1 °C 8.3 °C 1015.1 hPa WSW 18.5 km/h 18.5 km/h 83 % 0.0 mm 162.0 W/m2 CLR
10:55 11.3 °C 8.7 °C 1015.1 hPa WNW 16.7 km/h 16.7 km/h 84 % 0.0 mm 214.0 W/m2 CLR
11:00 11.4 °C 8.4 °C 1015.1 hPa West 20.4 km/h 20.4 km/h 82 % 0.0 mm 230.0 W/m2 CLR
11:05 11.6 °C 8.4 °C 1015.1 hPa WNW 29.6 km/h 29.6 km/h 81 % 0.0 mm 257.0 W/m2 CLR
11:10 11.8 °C 8.6 °C 1015.1 hPa NW 31.5 km/h 31.5 km/h 81 % 0.0 mm 244.0 W/m2 CLR
11:15 11.8 °C 8.4 °C 1015.1 hPa NW 16.7 km/h 16.7 km/h 80 % 0.0 mm 258.0 W/m2 CLR
11:20 11.8 °C 8.1 °C 1015.1 hPa NNW 33.3 km/h 33.3 km/h 78 % 0.0 mm 274.0 W/m2 CLR
11:25 11.8 °C 8.1 °C 1015.1 hPa NW 32.2 km/h 32.2 km/h 78 % 0.0 mm 309.0 W/m2 CLR
11:26 11.8 °C 8.1 °C 1015.1 hPa NW 31.5 km/h 31.5 km/h 78 % 0.0 mm 294.0 W/m2 CLR
11:31 11.8 °C 8.1 °C 1015.5 hPa NNW 31.5 km/h 31.5 km/h 78 % 0.0 mm 294.0 W/m2 CLR
11:36 11.9 °C 8.2 °C 1015.1 hPa WNW 18.5 km/h 18.5 km/h 78 % 0.0 mm 241.0 W/m2 CLR
11:41 11.9 °C 8.1 °C 1015.1 hPa WNW 25.9 km/h 25.9 km/h 77 % 0.0 mm 237.0 W/m2 CLR
11:46 11.9 °C 7.8 °C 1015.5 hPa NW 32.2 km/h 32.2 km/h 76 % 0.0 mm 250.0 W/m2 CLR
11:51 11.8 °C 7.7 °C 1015.1 hPa WNW 25.9 km/h 25.9 km/h 76 % 0.0 mm 304.0 W/m2 CLR
11:56 11.9 °C 7.8 °C 1015.1 hPa NNW 25.9 km/h 25.9 km/h 76 % 0.0 mm 299.0 W/m2 CLR
12:01 11.9 °C 7.8 °C 1015.1 hPa WNW 37.0 km/h 37.0 km/h 76 % 0.0 mm 257.0 W/m2 CLR
12:06 11.9 °C 7.8 °C 1015.1 hPa WNW 22.2 km/h 22.2 km/h 76 % 0.0 mm 285.0 W/m2 CLR
12:11 12.0 °C 7.9 °C 1015.1 hPa WNW 25.7 km/h 25.7 km/h 76 % 0.0 mm 265.0 W/m2 CLR
12:16 12.0 °C 7.7 °C 1015.1 hPa NW 27.8 km/h 27.8 km/h 75 % 0.0 mm 279.0 W/m2 CLR
12:21 12.1 °C 7.8 °C 1015.1 hPa NW 27.8 km/h 27.8 km/h 75 % 0.0 mm 329.0 W/m2 CLR
12:26 12.1 °C 7.2 °C 1015.1 hPa NNW 31.5 km/h 31.5 km/h 72 % 0.0 mm 352.0 W/m2 CLR
12:31 12.2 °C 7.5 °C 1015.1 hPa NW 31.5 km/h 31.5 km/h 73 % 0.0 mm 348.0 W/m2 CLR
12:36 12.3 °C 7.4 °C 1015.1 hPa WNW 31.5 km/h 31.5 km/h 72 % 0.0 mm 413.0 W/m2 CLR
12:41 12.5 °C 7.6 °C 1015.1 hPa NNW 31.5 km/h 31.5 km/h 72 % 0.0 mm 506.0 W/m2 CLR
12:46 12.7 °C 7.3 °C 1015.1 hPa NW 31.5 km/h 31.5 km/h 70 % 0.0 mm 466.0 W/m2 CLR
12:51 12.8 °C 7.7 °C 1015.1 hPa NW 22.2 km/h 22.2 km/h 71 % 0.0 mm 420.0 W/m2 CLR
12:56 13.1 °C 7.9 °C 1014.8 hPa WNW 22.2 km/h 22.2 km/h 71 % 0.0 mm 441.0 W/m2 CLR
13:01 13.2 °C 7.6 °C 1014.8 hPa WNW 29.6 km/h 29.6 km/h 69 % 0.0 mm 448.0 W/m2 CLR
13:06 13.2 °C 7.4 °C 1014.8 hPa NW 27.8 km/h 27.8 km/h 68 % 0.0 mm 396.0 W/m2 CLR
13:11 13.0 °C 7.0 °C 1014.8 hPa NNW 29.6 km/h 29.6 km/h 67 % 0.0 mm 369.0 W/m2 CLR
13:16 12.7 °C 6.7 °C 1014.8 hPa NNW 29.6 km/h 29.6 km/h 67 % 0.0 mm 306.0 W/m2 CLR
13:21 12.4 °C 6.3 °C 1015.1 hPa NNW 42.6 km/h 42.6 km/h 66 % 0.0 mm 316.0 W/m2 CLR
13:26 12.4 °C 6.4 °C 1015.1 hPa NW 35.2 km/h 35.2 km/h 67 % 0.0 mm 272.0 W/m2 CLR
13:32 12.3 °C 6.4 °C 1014.8 hPa WNW 35.2 km/h 35.2 km/h 67 % 0.0 mm 260.0 W/m2 CLR
13:37 12.3 °C 6.2 °C 1015.1 hPa NNW 35.2 km/h 35.2 km/h 66 % 0.0 mm 348.0 W/m2 CLR
13:42 12.3 °C 6.1 °C 1015.1 hPa WNW 31.5 km/h 31.5 km/h 66 % 0.0 mm 359.0 W/m2 CLR
13:47 12.3 °C 5.9 °C 1014.8 hPa NW 33.3 km/h 33.3 km/h 65 % 0.0 mm 464.0 W/m2 CLR
13:52 12.6 °C 6.4 °C 1014.8 hPa West 25.7 km/h 25.7 km/h 66 % 0.0 mm 510.0 W/m2 CLR
13:57 12.9 °C 6.2 °C 1014.8 hPa WNW 37.0 km/h 37.0 km/h 64 % 0.0 mm 621.0 W/m2 CLR
14:02 13.2 °C 6.3 °C 1014.8 hPa WNW 31.5 km/h 31.5 km/h 63 % 0.0 mm 636.0 W/m2 CLR
14:07 13.2 °C 6.3 °C 1014.8 hPa NNW 31.5 km/h 31.5 km/h 63 % 0.0 mm 621.0 W/m2 CLR
14:12 13.3 °C 5.9 °C 1014.4 hPa NW 35.2 km/h 35.2 km/h 61 % 0.0 mm 608.0 W/m2 CLR
14:17 13.4 °C 6.0 °C 1014.4 hPa NW 33.3 km/h 33.3 km/h 61 % 0.0 mm 485.0 W/m2 CLR
14:22 13.5 °C 6.1 °C 1014.8 hPa NW 31.5 km/h 31.5 km/h 61 % 0.0 mm 571.0 W/m2 CLR
14:27 13.6 °C 5.7 °C 1014.8 hPa NW 37.0 km/h 37.0 km/h 59 % 0.0 mm 570.0 W/m2 CLR
14:32 13.8 °C 6.4 °C 1014.4 hPa West 18.5 km/h 18.5 km/h 61 % 0.0 mm 543.0 W/m2 CLR
14:37 14.1 °C 5.9 °C 1014.4 hPa WNW 37.0 km/h 37.0 km/h 58 % 0.0 mm 501.0 W/m2 CLR
14:42 13.8 °C 5.4 °C 1014.4 hPa NW 35.2 km/h 35.2 km/h 57 % 0.0 mm 371.0 W/m2 CLR
14:47 13.6 °C 5.7 °C 1014.8 hPa NNW 33.3 km/h 33.3 km/h 59 % 0.0 mm 531.0 W/m2 CLR
14:52 13.6 °C 5.7 °C 1014.4 hPa WNW 31.5 km/h 31.5 km/h 59 % 0.0 mm 475.0 W/m2 CLR
14:57 13.8 °C 5.9 °C 1014.4 hPa WNW 27.8 km/h 27.8 km/h 59 % 0.0 mm 452.0 W/m2 CLR
15:02 13.8 °C 5.7 °C 1014.4 hPa NW 31.5 km/h 31.5 km/h 58 % 0.0 mm 431.0 W/m2 CLR
15:07 13.9 °C 6.0 °C 1014.4 hPa WNW 24.1 km/h 24.1 km/h 59 % 0.0 mm 436.0 W/m2 CLR
15:12 13.8 °C 5.4 °C 1014.4 hPa NW 42.6 km/h 42.6 km/h 57 % 0.0 mm 371.0 W/m2 CLR
15:17 13.8 °C 5.7 °C 1014.4 hPa NW 24.1 km/h 24.1 km/h 58 % 0.0 mm 466.0 W/m2 CLR
15:22 13.8 °C 5.4 °C 1014.4 hPa WNW 25.9 km/h 25.9 km/h 57 % 0.0 mm 496.0 W/m2 CLR
15:27 13.8 °C 5.4 °C 1014.4 hPa WNW 24.1 km/h 24.1 km/h 57 % 0.0 mm 431.0 W/m2 CLR
15:32 13.8 °C 5.2 °C 1014.4 hPa NW 31.5 km/h 31.5 km/h 56 % 0.0 mm 399.0 W/m2 CLR
15:37 13.6 °C 5.0 °C 1014.4 hPa North 38.9 km/h 38.9 km/h 56 % 0.0 mm 399.0 W/m2 CLR
15:42 13.6 °C 5.5 °C 1014.4 hPa NW 27.4 km/h 27.4 km/h 58 % 0.0 mm 461.0 W/m2 CLR
15:47 13.8 °C 5.2 °C 1014.4 hPa NNW 38.6 km/h 38.6 km/h 56 % 0.0 mm 424.0 W/m2 CLR
15:52 13.6 °C 5.0 °C 1014.4 hPa West 38.9 km/h 38.9 km/h 56 % 0.0 mm 394.0 W/m2 CLR
15:57 13.6 °C 5.0 °C 1014.1 hPa West 29.6 km/h 29.6 km/h 56 % 0.0 mm 410.0 W/m2 CLR
16:02 13.7 °C 5.1 °C 1014.1 hPa NW 25.9 km/h 25.9 km/h 56 % 0.0 mm 313.0 W/m2 CLR
16:07 13.5 °C 4.6 °C 1014.4 hPa NW 33.3 km/h 33.3 km/h 55 % 0.0 mm 371.0 W/m2 CLR
16:12 13.4 °C 4.8 °C 1014.4 hPa WNW 27.8 km/h 27.8 km/h 56 % 0.0 mm 322.0 W/m2 CLR
16:17 13.6 °C 4.9 °C 1014.4 hPa NNW 31.5 km/h 31.5 km/h 56 % 0.0 mm 338.0 W/m2 CLR
16:22 13.6 °C 5.2 °C 1014.8 hPa NNW 25.9 km/h 25.9 km/h 57 % 0.0 mm 336.0 W/m2 CLR
16:27 13.7 °C 4.6 °C 1014.8 hPa WNW 31.5 km/h 31.5 km/h 54 % 0.0 mm 316.0 W/m2 CLR
16:32 13.7 °C 5.1 °C 1014.8 hPa WNW 24.1 km/h 24.1 km/h 56 % 0.0 mm 320.0 W/m2 CLR
16:37 13.6 °C 4.7 °C 1014.8 hPa WNW 22.2 km/h 22.2 km/h 55 % 0.0 mm 267.0 W/m2 CLR
16:42 13.6 °C 5.0 °C 1014.8 hPa WNW 18.5 km/h 18.5 km/h 56 % 0.0 mm 290.0 W/m2 CLR
16:47 13.6 °C 5.2 °C 1014.8 hPa NW 35.2 km/h 35.2 km/h 57 % 0.0 mm 269.0 W/m2 CLR
16:52 13.4 °C 4.8 °C 1014.8 hPa WNW 31.5 km/h 31.5 km/h 56 % 0.0 mm 257.0 W/m2 CLR
16:57 13.2 °C 4.6 °C 1014.8 hPa NW 31.5 km/h 31.5 km/h 56 % 0.0 mm 243.0 W/m2 CLR
17:02 13.2 °C 4.6 °C 1014.8 hPa WNW 31.5 km/h 31.5 km/h 56 % 0.0 mm 227.0 W/m2 CLR
17:03 13.2 °C 4.6 °C 1014.8 hPa West 31.5 km/h 31.5 km/h 56 % 0.0 mm 223.0 W/m2 CLR
17:08 13.2 °C 4.6 °C 1014.8 hPa WNW 18.5 km/h 18.5 km/h 56 % 0.0 mm 223.0 W/m2 CLR
17:13 13.2 °C 4.6 °C 1014.8 hPa NW 27.8 km/h 27.8 km/h 56 % 0.0 mm 199.0 W/m2 CLR
17:18 13.1 °C 4.5 °C 1014.8 hPa NW 27.8 km/h 27.8 km/h 56 % 0.0 mm 181.0 W/m2 CLR
17:23 13.0 °C 4.4 °C 1014.8 hPa NNW 27.8 km/h 27.8 km/h 56 % 0.0 mm 167.0 W/m2 CLR
17:28 13.0 °C 4.7 °C 1014.8 hPa NNW 31.5 km/h 31.5 km/h 57 % 0.0 mm 141.0 W/m2 CLR
17:33 12.8 °C 4.5 °C 1014.8 hPa WNW 31.5 km/h 31.5 km/h 57 % 0.0 mm 137.0 W/m2 CLR
17:38 12.8 °C 4.4 °C 1014.8 hPa NW 27.8 km/h 27.8 km/h 57 % 0.0 mm 114.0 W/m2 CLR
17:43 12.7 °C 4.4 °C 1015.1 hPa WNW 29.0 km/h 29.0 km/h 57 % 0.0 mm 100.0 W/m2 CLR
17:48 12.6 °C 4.3 °C 1015.1 hPa NW 27.8 km/h 27.8 km/h 57 % 0.0 mm 83.0 W/m2 FEW
17:53 12.4 °C 4.1 °C 1015.1 hPa NW 32.2 km/h 32.2 km/h 57 % 0.0 mm 77.0 W/m2 FEW
17:58 12.3 °C 4.0 °C 1015.5 hPa NW 27.4 km/h 27.4 km/h 57 % 0.0 mm 63.0 W/m2 FEW
18:03 12.1 °C 4.1 °C 1015.5 hPa West 29.6 km/h 29.6 km/h 58 % 0.0 mm 53.0 W/m2 SCT
18:08 12.0 °C 4.0 °C 1015.5 hPa WNW 31.5 km/h 31.5 km/h 58 % 0.0 mm 47.0 W/m2 SCT
18:13 11.9 °C 3.9 °C 1015.5 hPa WNW 24.1 km/h 24.1 km/h 58 % 0.0 mm 37.0 W/m2 BKN
18:18 11.8 °C 3.8 °C 1015.8 hPa West 27.8 km/h 27.8 km/h 58 % 0.0 mm 30.0 W/m2 BKN
18:23 11.6 °C 3.9 °C 1015.8 hPa WNW 24.1 km/h 24.1 km/h 59 % 0.0 mm 23.0 W/m2 BKN
18:28 11.4 °C 3.9 °C 1015.8 hPa NW 29.6 km/h 29.6 km/h 60 % 0.0 mm 16.0 W/m2 BKN
18:33 11.3 °C 4.1 °C 1016.1 hPa NW 31.5 km/h 31.5 km/h 61 % 0.0 mm 11.0 W/m2 BKN
18:38 11.2 °C 3.9 °C 1016.1 hPa West 25.7 km/h 25.7 km/h 61 % 0.0 mm 7.0 W/m2 BKN
18:43 11.1 °C 3.9 °C 1016.5 hPa West 33.3 km/h 33.3 km/h 61 % 0.0 mm 0.0 W/m2 OVC
18:48 10.9 °C 3.7 °C 1016.5 hPa WNW 18.5 km/h 18.5 km/h 61 % 0.0 mm 0.0 W/m2 OVC
18:53 10.8 °C 3.6 °C 1016.5 hPa West 18.5 km/h 18.5 km/h 61 % 0.0 mm 0.0 W/m2 OVC
18:58 10.8 °C 3.6 °C 1016.5 hPa West 9.3 km/h 9.3 km/h 61 % 0.0 mm 0.0 W/m2 CLR
19:03 10.6 °C 3.2 °C 1016.8 hPa WNW 24.1 km/h 24.1 km/h 60 % 0.0 mm 0.0 W/m2 CLR
19:08 10.5 °C 3.3 °C 1016.8 hPa West 18.5 km/h 18.5 km/h 61 % 0.0 mm 0.0 W/m2 CLR
19:13 10.5 °C 3.1 °C 1017.2 hPa WNW 27.8 km/h 27.8 km/h 60 % 0.0 mm 0.0 W/m2 CLR
19:18 10.3 °C 3.1 °C 1017.2 hPa WNW 20.4 km/h 20.4 km/h 61 % 0.0 mm 0.0 W/m2 CLR
19:23 10.2 °C 3.4 °C 1017.2 hPa WNW 18.5 km/h 18.5 km/h 63 % 0.0 mm 0.0 W/m2 CLR
19:28 10.1 °C 3.3 °C 1017.2 hPa West 29.6 km/h 29.6 km/h 63 % 0.0 mm 0.0 W/m2 CLR
19:33 9.9 °C 3.4 °C 1017.5 hPa West 25.9 km/h 25.9 km/h 64 % 0.0 mm 0.0 W/m2 CLR
19:38 9.9 °C 3.4 °C 1017.5 hPa West 24.1 km/h 24.1 km/h 64 % 0.0 mm 0.0 W/m2 CLR
19:43 9.9 °C 3.4 °C 1017.5 hPa West 33.3 km/h 33.3 km/h 64 % 0.0 mm 0.0 W/m2 CLR
19:48 9.7 °C 3.2 °C 1017.5 hPa West 20.4 km/h 20.4 km/h 64 % 0.0 mm 0.0 W/m2 CLR
19:53 9.6 °C 3.3 °C 1017.5 hPa West 24.1 km/h 24.1 km/h 65 % 0.0 mm 0.0 W/m2 CLR
19:58 9.4 °C 2.9 °C 1017.8 hPa WNW 24.1 km/h 24.1 km/h 64 % 0.0 mm 0.0 W/m2 CLR
20:03 9.3 °C 3.1 °C 1017.8 hPa West 30.6 km/h 30.6 km/h 65 % 0.0 mm 0.0 W/m2 CLR
20:08 9.3 °C 2.8 °C 1017.8 hPa WNW 24.1 km/h 24.1 km/h 64 % 0.0 mm 0.0 W/m2 CLR
20:13 9.2 °C 2.9 °C 1017.8 hPa NW 31.5 km/h 31.5 km/h 65 % 0.0 mm 0.0 W/m2 CLR
20:18 9.1 °C 2.9 °C 1018.2 hPa NW 29.6 km/h 29.6 km/h 65 % 0.0 mm 0.0 W/m2 CLR
20:23 9.0 °C 2.8 °C 1018.2 hPa WNW 18.5 km/h 18.5 km/h 65 % 0.0 mm 0.0 W/m2 CLR
20:28 9.0 °C 2.8 °C 1018.2 hPa WNW 16.7 km/h 16.7 km/h 65 % 0.0 mm 0.0 W/m2 CLR
20:33 9.1 °C 2.6 °C 1018.2 hPa WNW 20.4 km/h 20.4 km/h 64 % 0.0 mm 0.0 W/m2 CLR
20:38 9.1 °C 2.6 °C 1018.2 hPa West 19.3 km/h 19.3 km/h 64 % 0.0 mm 0.0 W/m2 CLR
20:43 9.0 °C 2.3 °C 1018.2 hPa West 24.1 km/h 24.1 km/h 63 % 0.0 mm 0.0 W/m2 CLR
20:48 9.0 °C 2.3 °C 1018.5 hPa West 27.8 km/h 27.8 km/h 63 % 0.0 mm 0.0 W/m2 CLR
20:53 9.0 °C 2.3 °C 1018.5 hPa WNW 18.5 km/h 18.5 km/h 63 % 0.0 mm 0.0 W/m2 CLR
20:58 8.9 °C 2.4 °C 1018.5 hPa West 18.5 km/h 18.5 km/h 64 % 0.0 mm 0.0 W/m2 CLR
21:03 8.7 °C 2.3 °C 1018.5 hPa West 13.0 km/h 13.0 km/h 64 % 0.0 mm 0.0 W/m2 CLR
21:08 8.6 °C 2.2 °C 1018.8 hPa WSW 14.8 km/h 14.8 km/h 64 % 0.0 mm 0.0 W/m2 CLR
21:13 8.6 °C 2.2 °C 1018.8 hPa West 20.9 km/h 20.9 km/h 64 % 0.0 mm 0.0 W/m2 CLR
21:18 8.6 °C 1.9 °C 1019.2 hPa West 18.5 km/h 18.5 km/h 63 % 0.0 mm 0.0 W/m2 CLR
21:23 8.6 °C 1.9 °C 1019.2 hPa West 20.4 km/h 20.4 km/h 63 % 0.0 mm 0.0 W/m2 CLR
21:28 8.6 °C 1.9 °C 1019.2 hPa WNW 25.9 km/h 25.9 km/h 63 % 0.0 mm 0.0 W/m2 CLR
21:33 8.6 °C 2.1 °C 1019.2 hPa WNW 24.1 km/h 24.1 km/h 64 % 0.0 mm 0.0 W/m2 CLR
21:38 8.4 °C 2.0 °C 1019.2 hPa West 22.2 km/h 22.2 km/h 64 % 0.0 mm 0.0 W/m2 CLR
21:43 8.3 °C 1.9 °C 1019.2 hPa WNW 24.1 km/h 24.1 km/h 64 % 0.0 mm 0.0 W/m2 CLR
21:48 8.3 °C 1.9 °C 1019.2 hPa West 20.4 km/h 20.4 km/h 64 % 0.0 mm 0.0 W/m2 CLR
21:53 8.3 °C 1.9 °C 1019.5 hPa West 33.8 km/h 33.8 km/h 64 % 0.0 mm 0.0 W/m2 CLR
21:58 8.2 °C 2.0 °C 1019.5 hPa West 22.2 km/h 22.2 km/h 65 % 0.0 mm 0.0 W/m2 CLR
22:03 8.2 °C 2.0 °C 1019.5 hPa West 25.9 km/h 25.9 km/h 65 % 0.0 mm 0.0 W/m2 CLR
22:09 8.2 °C 2.0 °C 1019.5 hPa West 27.8 km/h 27.8 km/h 65 % 0.0 mm 0.0 W/m2 CLR
22:14 8.1 °C 1.9 °C 1019.5 hPa WSW 18.5 km/h 19.1 km/h 65 % 0.0 mm 0.0 W/m2 CLR
22:19 8.1 °C 1.9 °C 1019.5 hPa WNW 18.5 km/h 18.5 km/h 65 % 0.0 mm 0.0 W/m2 CLR
22:24 7.9 °C 1.8 °C 1019.5 hPa West 20.4 km/h 20.4 km/h 65 % 0.0 mm 0.0 W/m2 CLR
22:29 8.0 °C 1.8 °C 1019.5 hPa West 24.1 km/h 24.1 km/h 65 % 0.0 mm 0.0 W/m2 CLR
22:34 7.9 °C 1.8 °C 1019.5 hPa WSW 25.9 km/h 25.9 km/h 65 % 0.0 mm 0.0 W/m2 CLR
22:39 7.9 °C 1.8 °C 1019.9 hPa West 22.2 km/h 22.2 km/h 65 % 0.0 mm 0.0 W/m2 CLR
22:44 7.9 °C 1.5 °C 1019.9 hPa West 29.6 km/h 29.6 km/h 64 % 0.0 mm 0.0 W/m2 CLR
22:49 7.9 °C 1.5 °C 1019.9 hPa West 20.4 km/h 20.4 km/h 64 % 0.0 mm 0.0 W/m2 CLR
22:54 7.8 °C 1.4 °C 1019.9 hPa West 29.6 km/h 29.6 km/h 64 % 0.0 mm 0.0 W/m2 CLR
22:59 7.8 °C 1.4 °C 1019.9 hPa West 27.8 km/h 27.8 km/h 64 % 0.0 mm 0.0 W/m2 CLR
23:04 7.8 °C 1.4 °C 1019.9 hPa West 31.5 km/h 31.5 km/h 64 % 0.0 mm 0.0 W/m2 CLR
23:09 7.8 °C 1.2 °C 1019.9 hPa WNW 25.9 km/h 25.9 km/h 63 % 0.0 mm 0.0 W/m2 CLR
23:14 7.7 °C 1.3 °C 1020.2 hPa West 30.6 km/h 30.6 km/h 64 % 0.0 mm 0.0 W/m2 CLR
23:19 7.7 °C 1.3 °C 1020.2 hPa WSW 24.1 km/h 24.1 km/h 64 % 0.0 mm 0.0 W/m2 CLR
23:24 7.6 °C 1.2 °C 1019.9 hPa West 18.5 km/h 18.5 km/h 64 % 0.0 mm 0.0 W/m2 CLR
23:30 7.6 °C 1.2 °C 1019.9 hPa SW 18.5 km/h 18.5 km/h 64 % 0.0 mm 0.0 W/m2 CLR
23:35 7.4 °C 1.1 °C 1019.9 hPa WSW 14.8 km/h 14.8 km/h 64 % 0.0 mm 0.0 W/m2 CLR
23:40 7.4 °C 1.0 °C 1020.2 hPa WSW 16.7 km/h 16.7 km/h 64 % 0.0 mm 0.0 W/m2 CLR
23:45 7.3 °C 0.9 °C 1020.2 hPa West 12.9 km/h 12.9 km/h 64 % 0.0 mm 0.0 W/m2 CLR
23:50 7.2 °C 1.1 °C 1020.2 hPa West 13.0 km/h 13.0 km/h 65 % 0.0 mm 0.0 W/m2 CLR
23:55 7.2 °C 1.1 °C 1020.2 hPa WSW 18.5 km/h 18.5 km/h 65 % 0.0 mm 0.0 W/m2 CLR
Lo Temps de Massalio
Compliments of Weather Underground - 1.25 mb